Terminal Aerodrome Forecast
Issued by NWS Charleston, WV

Current Version | Previous Version | Text Only | Print | Product List | Glossary Off
Versions: 1 2 3 4 5 6 7 8 9 10 11 12 13 14 15 16 17 18 19 20 21 22

000
FTUS41 KRLX 092000 AAA
TAFEKN
TAF AMD
KEKN 092008Z 0920/1018 27008KT P6SM SCT035 BKN060
      TEMPO 0920/0922 6SM -SHRA BKN035
     FM092300 27004KT P6SM SCT035
     FM100500 VRB03KT 5SM BR SCT035
     FM100600 00000KT 1/4SM FG OVC001
     FM101200 00000KT 2SM BR SCT003 SCT030
     FM101300 00000KT P6SM SCT035=

USA.gov is the U.S. government's official web portal to all federal, state and local government web resources and services.